sensor_id;sensor_type;location;lat;lon;timestamp;temperature;humidity
56538;DHT22;42435;53.292;6.000;2023-08-06T00:00:10;15.30;83.60
56538;DHT22;42435;53.292;6.000;2023-08-06T00:02:35;15.30;83.70
56538;DHT22;42435;53.292;6.000;2023-08-06T00:05:01;15.40;83.80
56538;DHT22;42435;53.292;6.000;2023-08-06T00:07:26;15.40;83.90
56538;DHT22;42435;53.292;6.000;2023-08-06T00:09:52;15.40;83.90
56538;DHT22;42435;53.292;6.000;2023-08-06T00:12:18;15.40;84.00
56538;DHT22;42435;53.292;6.000;2023-08-06T00:14:43;15.40;83.90
56538;DHT22;42435;53.292;6.000;2023-08-06T00:17:09;15.40;83.90
56538;DHT22;42435;53.292;6.000;2023-08-06T00:19:35;15.40;84.00
56538;DHT22;42435;53.292;6.000;2023-08-06T00:22:00;15.40;84.00
56538;DHT22;42435;53.292;6.000;2023-08-06T00:24:27;15.40;83.90
56538;DHT22;42435;53.292;6.000;2023-08-06T00:26:53;15.40;83.90
56538;DHT22;42435;53.292;6.000;2023-08-06T00:29:18;15.40;83.90
56538;DHT22;42435;53.292;6.000;2023-08-06T00:31:44;15.40;84.00
56538;DHT22;42435;53.292;6.000;2023-08-06T00:34:09;15.40;84.00
56538;DHT22;42435;53.292;6.000;2023-08-06T00:36:35;15.40;84.00
56538;DHT22;42435;53.292;6.000;2023-08-06T00:39:00;15.40;84.00
56538;DHT22;42435;53.292;6.000;2023-08-06T00:41:26;15.40;84.00
56538;DHT22;42435;53.292;6.000;2023-08-06T00:43:52;15.40;83.80
56538;DHT22;42435;53.292;6.000;2023-08-06T00:46:17;15.40;83.80
56538;DHT22;42435;53.292;6.000;2023-08-06T00:48:43;15.40;83.80
56538;DHT22;42435;53.292;6.000;2023-08-06T00:51:10;15.30;83.90
56538;DHT22;42435;53.292;6.000;2023-08-06T00:53:37;15.30;84.00
56538;DHT22;42435;53.292;6.000;2023-08-06T00:56:03;15.30;84.00
56538;DHT22;42435;53.292;6.000;2023-08-06T00:58:29;15.30;84.00
56538;DHT22;42435;53.292;6.000;2023-08-06T01:00:55;15.30;84.00
56538;DHT22;42435;53.292;6.000;2023-08-06T01:03:21;15.30;84.00
56538;DHT22;42435;53.292;6.000;2023-08-06T01:05:49;15.30;83.90
56538;DHT22;42435;53.292;6.000;2023-08-06T01:13:47;15.30;84.20
56538;DHT22;42435;53.292;6.000;2023-08-06T01:16:20;15.40;84.10
56538;DHT22;42435;53.292;6.000;2023-08-06T01:18:49;15.30;84.20
56538;DHT22;42435;53.292;6.000;2023-08-06T01:21:18;15.30;84.10
56538;DHT22;42435;53.292;6.000;2023-08-06T01:23:45;15.30;84.10
56538;DHT22;42435;53.292;6.000;2023-08-06T01:26:14;15.40;84.10
56538;DHT22;42435;53.292;6.000;2023-08-06T01:28:48;15.40;84.10
56538;DHT22;42435;53.292;6.000;2023-08-06T01:31:21;15.40;84.20
56538;DHT22;42435;53.292;6.000;2023-08-06T01:33:49;15.40;84.10
56538;DHT22;42435;53.292;6.000;2023-08-06T01:36:16;15.40;84.10
56538;DHT22;42435;53.292;6.000;2023-08-06T01:38:44;15.40;84.10
56538;DHT22;42435;53.292;6.000;2023-08-06T01:41:09;15.40;84.10
56538;DHT22;42435;53.292;6.000;2023-08-06T01:43:36;15.40;84.10
56538;DHT22;42435;53.292;6.000;2023-08-06T01:46:02;15.40;84.10
56538;DHT22;42435;53.292;6.000;2023-08-06T01:48:28;15.40;84.00
56538;DHT22;42435;53.292;6.000;2023-08-06T01:50:53;15.40;84.00
56538;DHT22;42435;53.292;6.000;2023-08-06T01:53:19;15.40;84.00
56538;DHT22;42435;53.292;6.000;2023-08-06T01:55:48;15.40;84.00
56538;DHT22;42435;53.292;6.000;2023-08-06T01:58:14;15.40;84.00
56538;DHT22;42435;53.292;6.000;2023-08-06T02:00:40;15.40;83.90
56538;DHT22;42435;53.292;6.000;2023-08-06T02:03:06;15.40;83.90
56538;DHT22;42435;53.292;6.000;2023-08-06T02:05:31;15.40;83.90
56538;DHT22;42435;53.292;6.000;2023-08-06T02:07:57;15.40;83.90
56538;DHT22;42435;53.292;6.000;2023-08-06T02:10:22;15.40;84.00
56538;DHT22;42435;53.292;6.000;2023-08-06T02:12:48;15.40;84.10
56538;DHT22;42435;53.292;6.000;2023-08-06T02:15:15;15.40;84.10
56538;DHT22;42435;53.292;6.000;2023-08-06T02:17:40;15.40;84.10
56538;DHT22;42435;53.292;6.000;2023-08-06T02:20:06;15.40;84.10
56538;DHT22;42435;53.292;6.000;2023-08-06T02:22:32;15.40;84.00
56538;DHT22;42435;53.292;6.000;2023-08-06T02:24:58;15.40;84.00
56538;DHT22;42435;53.292;6.000;2023-08-06T02:27:24;15.40;84.00
56538;DHT22;42435;53.292;6.000;2023-08-06T02:29:50;15.40;84.00
56538;DHT22;42435;53.292;6.000;2023-08-06T02:32:15;15.40;84.00
56538;DHT22;42435;53.292;6.000;2023-08-06T02:34:41;15.40;84.10
56538;DHT22;42435;53.292;6.000;2023-08-06T02:37:09;15.40;84.10
56538;DHT22;42435;53.292;6.000;2023-08-06T02:39:35;15.40;84.20
56538;DHT22;42435;53.292;6.000;2023-08-06T02:42:01;15.40;84.20
56538;DHT22;42435;53.292;6.000;2023-08-06T02:44:28;15.40;84.10
56538;DHT22;42435;53.292;6.000;2023-08-06T02:46:54;15.40;84.10
56538;DHT22;42435;53.292;6.000;2023-08-06T02:49:19;15.40;84.10
56538;DHT22;42435;53.292;6.000;2023-08-06T02:51:45;15.40;84.20
56538;DHT22;42435;53.292;6.000;2023-08-06T02:54:11;15.40;84.30
56538;DHT22;42435;53.292;6.000;2023-08-06T02:56:36;15.40;84.30
56538;DHT22;42435;53.292;6.000;2023-08-06T02:59:02;15.40;84.30
56538;DHT22;42435;53.292;6.000;2023-08-06T03:01:27;15.30;84.30
56538;DHT22;42435;53.292;6.000;2023-08-06T03:03:54;15.40;84.40
56538;DHT22;42435;53.292;6.000;2023-08-06T03:06:19;15.40;84.40
56538;DHT22;42435;53.292;6.000;2023-08-06T03:08:45;15.40;84.50
56538;DHT22;42435;53.292;6.000;2023-08-06T03:11:10;15.40;84.60
56538;DHT22;42435;53.292;6.000;2023-08-06T03:13:36;15.40;84.50
56538;DHT22;42435;53.292;6.000;2023-08-06T03:16:01;15.40;84.60
56538;DHT22;42435;53.292;6.000;2023-08-06T03:18:27;15.40;84.50
56538;DHT22;42435;53.292;6.000;2023-08-06T03:20:53;15.40;84.40
56538;DHT22;42435;53.292;6.000;2023-08-06T03:23:19;15.40;84.40
56538;DHT22;42435;53.292;6.000;2023-08-06T03:25:44;15.40;84.40
56538;DHT22;42435;53.292;6.000;2023-08-06T03:28:10;15.40;84.40
56538;DHT22;42435;53.292;6.000;2023-08-06T03:30:36;15.40;84.40
56538;DHT22;42435;53.292;6.000;2023-08-06T03:33:01;15.40;84.40
56538;DHT22;42435;53.292;6.000;2023-08-06T03:35:27;15.40;84.40
56538;DHT22;42435;53.292;6.000;2023-08-06T03:37:53;15.40;84.40
56538;DHT22;42435;53.292;6.000;2023-08-06T03:40:18;15.40;84.40
56538;DHT22;42435;53.292;6.000;2023-08-06T03:42:44;15.40;84.30
56538;DHT22;42435;53.292;6.000;2023-08-06T03:45:10;15.40;84.30
56538;DHT22;42435;53.292;6.000;2023-08-06T03:47:35;15.40;84.40
56538;DHT22;42435;53.292;6.000;2023-08-06T03:50:01;15.40;84.40
56538;DHT22;42435;53.292;6.000;2023-08-06T03:52:26;15.40;84.40
56538;DHT22;42435;53.292;6.000;2023-08-06T03:54:52;15.40;84.30
56538;DHT22;42435;53.292;6.000;2023-08-06T03:57:17;15.40;84.40
56538;DHT22;42435;53.292;6.000;2023-08-06T03:59:43;15.40;84.30
56538;DHT22;42435;53.292;6.000;2023-08-06T04:02:09;15.40;84.30
56538;DHT22;42435;53.292;6.000;2023-08-06T04:04:34;15.40;84.20
56538;DHT22;42435;53.292;6.000;2023-08-06T04:07:00;15.40;84.20
56538;DHT22;42435;53.292;6.000;2023-08-06T04:09:27;15.40;84.30
56538;DHT22;42435;53.292;6.000;2023-08-06T04:11:53;15.30;84.30
56538;DHT22;42435;53.292;6.000;2023-08-06T04:14:18;15.30;84.30
56538;DHT22;42435;53.292;6.000;2023-08-06T04:16:44;15.30;84.30
56538;DHT22;42435;53.292;6.000;2023-08-06T04:19:10;15.30;84.30
56538;DHT22;42435;53.292;6.000;2023-08-06T04:21:35;15.30;84.30
56538;DHT22;42435;53.292;6.000;2023-08-06T04:24:01;15.30;84.30
56538;DHT22;42435;53.292;6.000;2023-08-06T04:26:27;15.30;84.40
56538;DHT22;42435;53.292;6.000;2023-08-06T04:28:52;15.20;84.50
56538;DHT22;42435;53.292;6.000;2023-08-06T04:31:18;15.30;84.60
56538;DHT22;42435;53.292;6.000;2023-08-06T04:33:44;15.30;84.60
56538;DHT22;42435;53.292;6.000;2023-08-06T04:36:10;15.30;84.70
56538;DHT22;42435;53.292;6.000;2023-08-06T04:38:36;15.30;84.80
56538;DHT22;42435;53.292;6.000;2023-08-06T04:41:02;15.40;84.80
56538;DHT22;42435;53.292;6.000;2023-08-06T04:43:28;15.40;84.80
56538;DHT22;42435;53.292;6.000;2023-08-06T04:45:55;15.40;84.80
56538;DHT22;42435;53.292;6.000;2023-08-06T04:48:22;15.40;84.80
56538;DHT22;42435;53.292;6.000;2023-08-06T04:50:49;15.40;84.70
56538;DHT22;42435;53.292;6.000;2023-08-06T04:53:15;15.50;84.70
56538;DHT22;42435;53.292;6.000;2023-08-06T04:55:41;15.50;84.70
56538;DHT22;42435;53.292;6.000;2023-08-06T04:58:09;15.50;84.60
56538;DHT22;42435;53.292;6.000;2023-08-06T05:00:34;15.60;84.60
56538;DHT22;42435;53.292;6.000;2023-08-06T05:03:00;15.60;84.60
56538;DHT22;42435;53.292;6.000;2023-08-06T05:05:27;15.60;84.60
56538;DHT22;42435;53.292;6.000;2023-08-06T05:07:54;15.70;84.60
56538;DHT22;42435;53.292;6.000;2023-08-06T05:10:24;15.70;84.60
56538;DHT22;42435;53.292;6.000;2023-08-06T05:12:50;15.70;84.50
56538;DHT22;42435;53.292;6.000;2023-08-06T05:15:18;15.70;84.50
56538;DHT22;42435;53.292;6.000;2023-08-06T05:17:44;15.80;84.50
56538;DHT22;42435;53.292;6.000;2023-08-06T05:20:10;15.90;84.50
56538;DHT22;42435;53.292;6.000;2023-08-06T05:22:36;15.90;84.60
56538;DHT22;42435;53.292;6.000;2023-08-06T05:25:03;15.90;84.50
56538;DHT22;42435;53.292;6.000;2023-08-06T05:27:29;15.90;84.50
56538;DHT22;42435;53.292;6.000;2023-08-06T05:29:57;16.00;84.40
56538;DHT22;42435;53.292;6.000;2023-08-06T05:32:24;16.00;84.40
56538;DHT22;42435;53.292;6.000;2023-08-06T05:34:49;16.10;84.30
56538;DHT22;42435;53.292;6.000;2023-08-06T05:37:15;16.20;84.30
56538;DHT22;42435;53.292;6.000;2023-08-06T05:39:44;16.20;84.20
56538;DHT22;42435;53.292;6.000;2023-08-06T05:42:09;16.20;84.20
56538;DHT22;42435;53.292;6.000;2023-08-06T05:44:35;16.30;84.20
56538;DHT22;42435;53.292;6.000;2023-08-06T05:47:01;16.40;84.20
56538;DHT22;42435;53.292;6.000;2023-08-06T05:49:26;16.40;84.20
56538;DHT22;42435;53.292;6.000;2023-08-06T05:51:52;16.50;84.20
56538;DHT22;42435;53.292;6.000;2023-08-06T05:54:20;16.60;83.90
56538;DHT22;42435;53.292;6.000;2023-08-06T05:56:47;16.60;83.70
56538;DHT22;42435;53.292;6.000;2023-08-06T05:59:13;16.70;83.50
56538;DHT22;42435;53.292;6.000;2023-08-06T06:01:38;16.90;83.50
56538;DHT22;42435;53.292;6.000;2023-08-06T06:04:04;17.00;83.40
56538;DHT22;42435;53.292;6.000;2023-08-06T06:06:31;17.20;83.30
56538;DHT22;42435;53.292;6.000;2023-08-06T06:08:56;17.50;82.70
56538;DHT22;42435;53.292;6.000;2023-08-06T06:11:22;17.80;82.20
56538;DHT22;42435;53.292;6.000;2023-08-06T06:13:51;18.00;81.70
56538;DHT22;42435;53.292;6.000;2023-08-06T06:16:17;18.10;81.40
56538;DHT22;42435;53.292;6.000;2023-08-06T06:18:43;18.10;81.40
56538;DHT22;42435;53.292;6.000;2023-08-06T06:21:09;18.10;80.90
56538;DHT22;42435;53.292;6.000;2023-08-06T06:23:34;18.10;80.60
56538;DHT22;42435;53.292;6.000;2023-08-06T06:26:00;18.10;80.20
56538;DHT22;42435;53.292;6.000;2023-08-06T06:28:25;18.10;79.90
56538;DHT22;42435;53.292;6.000;2023-08-06T06:30:51;18.10;80.00
56538;DHT22;42435;53.292;6.000;2023-08-06T06:33:17;18.20;80.00
56538;DHT22;42435;53.292;6.000;2023-08-06T06:35:43;18.20;80.10
56538;DHT22;42435;53.292;6.000;2023-08-06T06:38:08;18.30;80.00
56538;DHT22;42435;53.292;6.000;2023-08-06T06:40:34;18.40;79.90
56538;DHT22;42435;53.292;6.000;2023-08-06T06:42:59;18.50;79.80
56538;DHT22;42435;53.292;6.000;2023-08-06T06:45:25;18.50;79.20
56538;DHT22;42435;53.292;6.000;2023-08-06T06:47:50;18.50;79.00
56538;DHT22;42435;53.292;6.000;2023-08-06T06:50:16;18.60;79.20
56538;DHT22;42435;53.292;6.000;2023-08-06T06:52:42;18.70;79.20
56538;DHT22;42435;53.292;6.000;2023-08-06T06:55:07;18.80;79.10
56538;DHT22;42435;53.292;6.000;2023-08-06T06:57:33;18.80;78.90
56538;DHT22;42435;53.292;6.000;2023-08-06T06:59:59;18.90;79.00
56538;DHT22;42435;53.292;6.000;2023-08-06T07:02:24;18.90;79.10
56538;DHT22;42435;53.292;6.000;2023-08-06T07:04:50;19.00;79.00
56538;DHT22;42435;53.292;6.000;2023-08-06T07:07:16;19.00;78.70
56538;DHT22;42435;53.292;6.000;2023-08-06T07:09:41;19.10;78.60
56538;DHT22;42435;53.292;6.000;2023-08-06T07:12:07;19.20;78.60
56538;DHT22;42435;53.292;6.000;2023-08-06T07:14:33;19.30;78.00
56538;DHT22;42435;53.292;6.000;2023-08-06T07:16:58;19.40;77.50
56538;DHT22;42435;53.292;6.000;2023-08-06T07:19:24;19.40;77.70
56538;DHT22;42435;53.292;6.000;2023-08-06T07:21:49;19.40;77.70
56538;DHT22;42435;53.292;6.000;2023-08-06T07:24:16;19.40;77.40
56538;DHT22;42435;53.292;6.000;2023-08-06T07:26:41;19.50;77.50
56538;DHT22;42435;53.292;6.000;2023-08-06T07:29:07;19.50;76.60
56538;DHT22;42435;53.292;6.000;2023-08-06T07:31:35;19.50;76.50
56538;DHT22;42435;53.292;6.000;2023-08-06T07:34:01;19.50;76.50
56538;DHT22;42435;53.292;6.000;2023-08-06T07:36:26;19.60;76.60
56538;DHT22;42435;53.292;6.000;2023-08-06T07:38:52;19.60;75.80
56538;DHT22;42435;53.292;6.000;2023-08-06T07:41:22;19.50;75.90
56538;DHT22;42435;53.292;6.000;2023-08-06T07:43:49;19.50;76.00
56538;DHT22;42435;53.292;6.000;2023-08-06T07:46:15;19.50;75.90
56538;DHT22;42435;53.292;6.000;2023-08-06T07:48:40;19.60;76.20
56538;DHT22;42435;53.292;6.000;2023-08-06T07:51:06;19.60;75.70
56538;DHT22;42435;53.292;6.000;2023-08-06T07:53:31;19.70;75.50
56538;DHT22;42435;53.292;6.000;2023-08-06T07:55:57;19.70;75.70
56538;DHT22;42435;53.292;6.000;2023-08-06T07:58:25;19.90;75.80
56538;DHT22;42435;53.292;6.000;2023-08-06T08:00:51;20.00;75.90
56538;DHT22;42435;53.292;6.000;2023-08-06T08:03:17;20.20;74.90
56538;DHT22;42435;53.292;6.000;2023-08-06T08:05:43;20.30;74.60
56538;DHT22;42435;53.292;6.000;2023-08-06T08:08:09;20.40;75.30
56538;DHT22;42435;53.292;6.000;2023-08-06T08:10:35;20.60;75.60
56538;DHT22;42435;53.292;6.000;2023-08-06T08:13:04;20.80;75.10
56538;DHT22;42435;53.292;6.000;2023-08-06T08:15:31;20.90;73.80
56538;DHT22;42435;53.292;6.000;2023-08-06T08:17:57;21.00;73.60
56538;DHT22;42435;53.292;6.000;2023-08-06T08:20:23;21.20;72.50
56538;DHT22;42435;53.292;6.000;2023-08-06T08:22:49;21.40;72.80
56538;DHT22;42435;53.292;6.000;2023-08-06T08:25:16;21.50;72.70
56538;DHT22;42435;53.292;6.000;2023-08-06T08:27:42;21.70;73.30
56538;DHT22;42435;53.292;6.000;2023-08-06T08:30:07;21.90;72.60
56538;DHT22;42435;53.292;6.000;2023-08-06T08:32:34;22.20;72.00
56538;DHT22;42435;53.292;6.000;2023-08-06T08:34:59;22.30;71.10
56538;DHT22;42435;53.292;6.000;2023-08-06T08:37:25;22.40;69.70
56538;DHT22;42435;53.292;6.000;2023-08-06T08:39:50;22.50;69.60
56538;DHT22;42435;53.292;6.000;2023-08-06T08:42:16;22.50;69.70
56538;DHT22;42435;53.292;6.000;2023-08-06T08:44:45;22.70;69.10
56538;DHT22;42435;53.292;6.000;2023-08-06T08:47:11;22.90;67.90
56538;DHT22;42435;53.292;6.000;2023-08-06T08:49:37;23.20;68.40
56538;DHT22;42435;53.292;6.000;2023-08-06T08:52:04;23.40;68.10
56538;DHT22;42435;53.292;6.000;2023-08-06T08:54:38;23.60;66.60
56538;DHT22;42435;53.292;6.000;2023-08-06T08:57:05;23.60;65.50
56538;DHT22;42435;53.292;6.000;2023-08-06T08:59:33;23.50;64.80
56538;DHT22;42435;53.292;6.000;2023-08-06T09:02:00;23.40;63.90
56538;DHT22;42435;53.292;6.000;2023-08-06T09:04:28;23.40;64.50
56538;DHT22;42435;53.292;6.000;2023-08-06T09:06:57;23.20;64.30
56538;DHT22;42435;53.292;6.000;2023-08-06T09:09:30;23.10;64.30
56538;DHT22;42435;53.292;6.000;2023-08-06T09:12:01;23.00;62.60
56538;DHT22;42435;53.292;6.000;2023-08-06T09:14:27;23.00;62.40
56538;DHT22;42435;53.292;6.000;2023-08-06T09:16:54;23.00;63.80
56538;DHT22;42435;53.292;6.000;2023-08-06T09:19:20;23.10;65.30
56538;DHT22;42435;53.292;6.000;2023-08-06T09:21:46;23.20;64.50
56538;DHT22;42435;53.292;6.000;2023-08-06T09:24:15;23.30;63.40
56538;DHT22;42435;53.292;6.000;2023-08-06T09:26:43;23.40;64.00
56538;DHT22;42435;53.292;6.000;2023-08-06T09:29:10;23.40;63.70
56538;DHT22;42435;53.292;6.000;2023-08-06T09:31:46;23.50;62.30
56538;DHT22;42435;53.292;6.000;2023-08-06T09:36:47;23.50;63.00
56538;DHT22;42435;53.292;6.000;2023-08-06T09:39:14;23.50;63.80
56538;DHT22;42435;53.292;6.000;2023-08-06T09:41:44;23.60;62.60
56538;DHT22;42435;53.292;6.000;2023-08-06T09:44:21;23.60;63.40
56538;DHT22;42435;53.292;6.000;2023-08-06T09:46:54;23.70;62.80
56538;DHT22;42435;53.292;6.000;2023-08-06T09:49:25;23.80;65.10
56538;DHT22;42435;53.292;6.000;2023-08-06T09:51:51;23.90;64.20
56538;DHT22;42435;53.292;6.000;2023-08-06T09:54:18;23.90;64.10
56538;DHT22;42435;53.292;6.000;2023-08-06T09:56:44;23.90;64.00
56538;DHT22;42435;53.292;6.000;2023-08-06T09:59:10;23.90;63.40
56538;DHT22;42435;53.292;6.000;2023-08-06T10:01:38;23.90;63.10
56538;DHT22;42435;53.292;6.000;2023-08-06T10:04:06;23.90;62.80
56538;DHT22;42435;53.292;6.000;2023-08-06T10:06:40;23.90;62.90
56538;DHT22;42435;53.292;6.000;2023-08-06T10:09:06;23.90;62.80
56538;DHT22;42435;53.292;6.000;2023-08-06T10:11:33;23.80;62.80
56538;DHT22;42435;53.292;6.000;2023-08-06T10:16:37;23.70;62.20
56538;DHT22;42435;53.292;6.000;2023-08-06T10:19:08;23.60;62.40
56538;DHT22;42435;53.292;6.000;2023-08-06T10:21:34;23.40;62.70
56538;DHT22;42435;53.292;6.000;2023-08-06T10:24:00;23.30;62.90
56538;DHT22;42435;53.292;6.000;2023-08-06T10:26:28;23.20;62.90
56538;DHT22;42435;53.292;6.000;2023-08-06T10:28:54;23.10;64.40
56538;DHT22;42435;53.292;6.000;2023-08-06T10:31:43;23.10;64.20
56538;DHT22;42435;53.292;6.000;2023-08-06T10:34:22;23.00;64.40
56538;DHT22;42435;53.292;6.000;2023-08-06T10:36:48;23.00;64.70
56538;DHT22;42435;53.292;6.000;2023-08-06T10:39:18;23.10;64.60
56538;DHT22;42435;53.292;6.000;2023-08-06T10:41:44;23.10;65.20
56538;DHT22;42435;53.292;6.000;2023-08-06T10:44:11;23.10;65.40
56538;DHT22;42435;53.292;6.000;2023-08-06T10:46:37;23.10;64.40
56538;DHT22;42435;53.292;6.000;2023-08-06T10:49:04;23.10;63.80
56538;DHT22;42435;53.292;6.000;2023-08-06T10:51:30;23.10;64.50
56538;DHT22;42435;53.292;6.000;2023-08-06T10:53:57;23.10;63.90
56538;DHT22;42435;53.292;6.000;2023-08-06T10:56:25;23.00;64.30
56538;DHT22;42435;53.292;6.000;2023-08-06T10:58:56;23.00;64.60
56538;DHT22;42435;53.292;6.000;2023-08-06T11:01:24;22.90;64.10
56538;DHT22;42435;53.292;6.000;2023-08-06T11:03:54;22.80;63.80
56538;DHT22;42435;53.292;6.000;2023-08-06T11:06:21;22.80;64.30
56538;DHT22;42435;53.292;6.000;2023-08-06T11:08:54;22.80;64.30
56538;DHT22;42435;53.292;6.000;2023-08-06T11:11:26;22.80;64.40
56538;DHT22;42435;53.292;6.000;2023-08-06T11:13:52;22.70;64.60
56538;DHT22;42435;53.292;6.000;2023-08-06T11:16:23;22.70;64.30
56538;DHT22;42435;53.292;6.000;2023-08-06T11:18:52;22.70;64.40
56538;DHT22;42435;53.292;6.000;2023-08-06T11:21:24;22.60;64.00
56538;DHT22;42435;53.292;6.000;2023-08-06T11:23:51;22.60;63.80
56538;DHT22;42435;53.292;6.000;2023-08-06T11:26:21;22.60;63.50
56538;DHT22;42435;53.292;6.000;2023-08-06T11:28:46;22.60;64.00
56538;DHT22;42435;53.292;6.000;2023-08-06T11:31:22;22.60;64.60
56538;DHT22;42435;53.292;6.000;2023-08-06T11:33:55;22.70;64.40
56538;DHT22;42435;53.292;6.000;2023-08-06T11:36:34;22.80;64.00
56538;DHT22;42435;53.292;6.000;2023-08-06T11:39:03;22.90;64.10
56538;DHT22;42435;53.292;6.000;2023-08-06T11:41:32;23.00;64.20
56538;DHT22;42435;53.292;6.000;2023-08-06T11:44:01;23.10;63.50
56538;DHT22;42435;53.292;6.000;2023-08-06T11:46:26;23.20;63.30
56538;DHT22;42435;53.292;6.000;2023-08-06T11:48:58;23.30;63.20
56538;DHT22;42435;53.292;6.000;2023-08-06T11:51:24;23.40;62.70
56538;DHT22;42435;53.292;6.000;2023-08-06T11:53:58;23.60;63.30
56538;DHT22;42435;53.292;6.000;2023-08-06T11:56:25;23.80;63.70
56538;DHT22;42435;53.292;6.000;2023-08-06T11:58:52;24.00;63.90
56538;DHT22;42435;53.292;6.000;2023-08-06T12:01:20;24.30;62.50
56538;DHT22;42435;53.292;6.000;2023-08-06T12:03:46;24.50;61.60
56538;DHT22;42435;53.292;6.000;2023-08-06T12:06:12;24.60;61.50
56538;DHT22;42435;53.292;6.000;2023-08-06T12:08:37;24.80;60.40
56538;DHT22;42435;53.292;6.000;2023-08-06T12:11:03;24.90;61.30
56538;DHT22;42435;53.292;6.000;2023-08-06T12:13:29;25.00;60.10
56538;DHT22;42435;53.292;6.000;2023-08-06T12:15:56;25.10;59.80
56538;DHT22;42435;53.292;6.000;2023-08-06T12:18:24;25.30;59.60
56538;DHT22;42435;53.292;6.000;2023-08-06T12:20:50;25.40;59.60
56538;DHT22;42435;53.292;6.000;2023-08-06T12:23:16;25.60;60.10
56538;DHT22;42435;53.292;6.000;2023-08-06T12:25:42;25.80;58.60
56538;DHT22;42435;53.292;6.000;2023-08-06T12:28:07;25.90;58.40
56538;DHT22;42435;53.292;6.000;2023-08-06T12:30:34;26.20;59.10
56538;DHT22;42435;53.292;6.000;2023-08-06T12:33:00;26.40;56.80
56538;DHT22;42435;53.292;6.000;2023-08-06T12:35:25;26.50;57.10
56538;DHT22;42435;53.292;6.000;2023-08-06T12:37:52;26.70;57.20
56538;DHT22;42435;53.292;6.000;2023-08-06T12:40:22;26.90;56.60
56538;DHT22;42435;53.292;6.000;2023-08-06T12:42:50;27.00;54.70
56538;DHT22;42435;53.292;6.000;2023-08-06T12:45:19;27.00;55.20
56538;DHT22;42435;53.292;6.000;2023-08-06T12:47:48;27.10;55.60
56538;DHT22;42435;53.292;6.000;2023-08-06T12:50:15;27.10;54.60
56538;DHT22;42435;53.292;6.000;2023-08-06T12:52:45;27.10;55.10
56538;DHT22;42435;53.292;6.000;2023-08-06T12:55:11;27.10;55.40
56538;DHT22;42435;53.292;6.000;2023-08-06T12:57:36;27.20;53.20
56538;DHT22;42435;53.292;6.000;2023-08-06T13:00:02;27.20;53.60
56538;DHT22;42435;53.292;6.000;2023-08-06T13:02:28;27.20;53.20
56538;DHT22;42435;53.292;6.000;2023-08-06T13:04:55;27.20;53.20
56538;DHT22;42435;53.292;6.000;2023-08-06T13:07:20;27.10;53.20
56538;DHT22;42435;53.292;6.000;2023-08-06T13:09:46;27.00;53.10
56538;DHT22;42435;53.292;6.000;2023-08-06T13:12:14;26.90;52.90
56538;DHT22;42435;53.292;6.000;2023-08-06T13:14:40;26.70;53.10
56538;DHT22;42435;53.292;6.000;2023-08-06T13:17:06;26.60;53.80
56538;DHT22;42435;53.292;6.000;2023-08-06T13:19:32;26.50;52.50
56538;DHT22;42435;53.292;6.000;2023-08-06T13:22:03;26.50;52.60
56538;DHT22;42435;53.292;6.000;2023-08-06T13:24:29;26.40;52.90
56538;DHT22;42435;53.292;6.000;2023-08-06T13:26:55;26.40;54.30
56538;DHT22;42435;53.292;6.000;2023-08-06T13:29:20;26.40;53.40
56538;DHT22;42435;53.292;6.000;2023-08-06T13:31:49;26.40;53.70
56538;DHT22;42435;53.292;6.000;2023-08-06T13:34:15;26.40;53.20
56538;DHT22;42435;53.292;6.000;2023-08-06T13:36:44;26.40;53.10
56538;DHT22;42435;53.292;6.000;2023-08-06T13:39:10;26.30;52.60
56538;DHT22;42435;53.292;6.000;2023-08-06T13:41:37;26.40;52.30
56538;DHT22;42435;53.292;6.000;2023-08-06T13:44:04;26.40;52.30
56538;DHT22;42435;53.292;6.000;2023-08-06T13:46:29;26.40;51.40
56538;DHT22;42435;53.292;6.000;2023-08-06T13:48:57;26.30;52.50
56538;DHT22;42435;53.292;6.000;2023-08-06T13:51:23;26.30;52.40
56538;DHT22;42435;53.292;6.000;2023-08-06T13:53:48;26.30;52.20
56538;DHT22;42435;53.292;6.000;2023-08-06T13:56:14;26.20;51.70
56538;DHT22;42435;53.292;6.000;2023-08-06T13:58:43;26.20;51.80
56538;DHT22;42435;53.292;6.000;2023-08-06T14:01:10;26.20;52.20
56538;DHT22;42435;53.292;6.000;2023-08-06T14:03:36;26.30;52.80
56538;DHT22;42435;53.292;6.000;2023-08-06T14:06:02;26.30;51.20
56538;DHT22;42435;53.292;6.000;2023-08-06T14:08:28;26.40;51.60
56538;DHT22;42435;53.292;6.000;2023-08-06T14:10:54;26.30;51.00
56538;DHT22;42435;53.292;6.000;2023-08-06T14:13:24;26.40;51.70
56538;DHT22;42435;53.292;6.000;2023-08-06T14:15:49;26.40;51.50
56538;DHT22;42435;53.292;6.000;2023-08-06T14:18:16;26.40;52.20
56538;DHT22;42435;53.292;6.000;2023-08-06T14:20:42;26.40;51.70
56538;DHT22;42435;53.292;6.000;2023-08-06T14:23:08;26.40;50.90
56538;DHT22;42435;53.292;6.000;2023-08-06T14:25:34;26.20;51.40
56538;DHT22;42435;53.292;6.000;2023-08-06T14:27:59;26.10;52.00
56538;DHT22;42435;53.292;6.000;2023-08-06T14:30:26;26.00;52.70
56538;DHT22;42435;53.292;6.000;2023-08-06T14:32:53;25.90;52.20
56538;DHT22;42435;53.292;6.000;2023-08-06T14:35:19;25.90;52.20
56538;DHT22;42435;53.292;6.000;2023-08-06T14:37:44;25.90;52.90
56538;DHT22;42435;53.292;6.000;2023-08-06T14:40:11;25.90;53.20
56538;DHT22;42435;53.292;6.000;2023-08-06T14:42:37;25.80;52.10
56538;DHT22;42435;53.292;6.000;2023-08-06T14:45:04;25.80;52.40
56538;DHT22;42435;53.292;6.000;2023-08-06T14:47:33;25.80;52.50
56538;DHT22;42435;53.292;6.000;2023-08-06T14:49:58;25.80;52.60
56538;DHT22;42435;53.292;6.000;2023-08-06T14:52:24;25.80;52.60
56538;DHT22;42435;53.292;6.000;2023-08-06T14:54:49;25.80;53.30
56538;DHT22;42435;53.292;6.000;2023-08-06T14:57:17;25.90;53.10
56538;DHT22;42435;53.292;6.000;2023-08-06T14:59:43;26.00;52.90
56538;DHT22;42435;53.292;6.000;2023-08-06T15:02:09;26.00;52.60
56538;DHT22;42435;53.292;6.000;2023-08-06T15:04:34;26.10;51.80
56538;DHT22;42435;53.292;6.000;2023-08-06T15:07:00;26.10;51.80
56538;DHT22;42435;53.292;6.000;2023-08-06T15:09:26;26.00;52.00
56538;DHT22;42435;53.292;6.000;2023-08-06T15:11:51;25.90;52.30
56538;DHT22;42435;53.292;6.000;2023-08-06T15:14:17;25.70;52.30
56538;DHT22;42435;53.292;6.000;2023-08-06T15:16:43;25.60;52.40
56538;DHT22;42435;53.292;6.000;2023-08-06T15:19:08;25.50;52.70
56538;DHT22;42435;53.292;6.000;2023-08-06T15:21:36;25.40;53.20
56538;DHT22;42435;53.292;6.000;2023-08-06T15:24:01;25.40;53.50
56538;DHT22;42435;53.292;6.000;2023-08-06T15:26:27;25.40;53.80
56538;DHT22;42435;53.292;6.000;2023-08-06T15:28:53;25.40;54.00
56538;DHT22;42435;53.292;6.000;2023-08-06T15:31:21;25.40;54.20
56538;DHT22;42435;53.292;6.000;2023-08-06T15:33:48;25.30;54.40
56538;DHT22;42435;53.292;6.000;2023-08-06T15:36:16;25.30;54.60